createdAt,value
2019-04-10T00:00:00.526Z,22.93
2019-04-10T00:01:01.478Z,22.91
2019-04-10T00:02:01.526Z,22.93
2019-04-10T00:03:02.018Z,22.90
2019-04-10T00:04:01.031Z,22.90
2019-04-10T00:05:01.278Z,22.91
2019-04-10T00:06:01.620Z,22.91
2019-04-10T00:07:10.479Z,22.90
2019-04-10T00:08:01.860Z,22.90
2019-04-10T00:09:01.654Z,22.88
2019-04-10T00:10:01.851Z,22.88
2019-04-10T00:11:02.673Z,22.90
2019-04-10T00:12:02.152Z,22.91
2019-04-10T00:13:02.437Z,22.88
2019-04-10T00:14:02.961Z,22.88
2019-04-10T00:15:03.065Z,22.88
2019-04-10T00:16:03.518Z,22.88
2019-04-10T00:17:02.774Z,22.90
2019-04-10T00:18:02.814Z,22.88
2019-04-10T00:19:02.926Z,22.87
2019-04-10T00:20:03.046Z,22.88
2019-04-10T00:21:03.173Z,22.90
2019-04-10T00:22:04.225Z,22.87
2019-04-10T00:23:03.584Z,22.87
2019-04-10T00:24:03.871Z,22.85
2019-04-10T00:25:04.300Z,22.84
2019-04-10T00:26:03.798Z,22.84
2019-04-10T00:27:04.126Z,22.84
2019-04-10T00:28:05.254Z,22.83
2019-04-10T00:29:04.173Z,22.81
2019-04-10T00:30:04.824Z,22.81
2019-04-10T00:31:05.283Z,22.81
2019-04-10T00:32:05.664Z,22.83
2019-04-10T00:33:04.765Z,22.83
2019-04-10T00:34:05.394Z,22.80
2019-04-10T00:35:04.909Z,22.83
2019-04-10T00:36:05.040Z,22.83
2019-04-10T00:37:05.845Z,22.83
2019-04-10T00:38:05.284Z,22.84
2019-04-10T00:39:06.339Z,22.81
2019-04-10T00:40:05.518Z,22.81
2019-04-10T00:41:06.038Z,22.80
2019-04-10T00:42:05.779Z,22.83
2019-04-10T00:43:06.641Z,22.83
2019-04-10T00:44:06.048Z,22.83
2019-04-10T00:45:06.179Z,22.80
2019-04-10T00:46:06.291Z,22.80
2019-04-10T00:47:06.607Z,22.80
2019-04-10T00:48:06.589Z,22.80
2019-04-10T00:49:07.160Z,22.80
2019-04-10T00:50:06.803Z,22.80
2019-04-10T00:51:06.918Z,22.80
2019-04-10T00:52:07.994Z,22.80
2019-04-10T00:53:07.185Z,22.81
2019-04-10T00:54:07.774Z,22.80
2019-04-10T00:55:07.785Z,22.81
2019-04-10T00:56:08.410Z,22.80
2019-04-10T00:57:07.651Z,22.76
2019-04-10T00:58:07.892Z,22.80
2019-04-10T00:59:08.854Z,22.75
2019-04-10T01:00:08.565Z,22.76
2019-04-10T01:01:08.175Z,22.76
2019-04-10T01:02:08.293Z,22.75
2019-04-10T01:03:09.353Z,22.76
2019-04-10T01:04:10.482Z,22.80
2019-04-10T01:05:09.050Z,22.78
2019-04-10T01:06:08.813Z,22.78
2019-04-10T01:07:08.935Z,22.78
2019-04-10T01:08:09.052Z,22.78
2019-04-10T01:09:09.194Z,22.78
2019-04-10T01:10:10.183Z,22.76
2019-04-10T01:11:10.607Z,22.75
2019-04-10T01:12:09.863Z,22.76
2019-04-10T01:13:10.343Z,22.75
2019-04-10T01:14:09.791Z,22.76
2019-04-10T01:15:10.082Z,22.75
2019-04-10T01:16:11.210Z,22.73
2019-04-10T01:17:10.167Z,22.76
2019-04-10T01:18:10.954Z,22.78
2019-04-10T01:19:10.406Z,22.75
2019-04-10T01:20:10.576Z,22.75
2019-04-10T01:21:11.142Z,22.73
2019-04-10T01:22:10.803Z,22.72
2019-04-10T01:23:11.886Z,22.73
2019-04-10T01:24:11.161Z,22.73
2019-04-10T01:25:12.378Z,22.73
2019-04-10T01:26:11.306Z,22.72
2019-04-10T01:27:11.788Z,22.73
2019-04-10T01:28:12.252Z,22.72
2019-04-10T01:29:11.677Z,22.73
2019-04-10T01:30:11.785Z,22.73
2019-04-10T01:31:12.674Z,22.73
2019-04-10T01:32:12.090Z,22.75
2019-04-10T01:33:12.473Z,22.73
2019-04-10T01:34:12.280Z,22.72
2019-04-10T01:35:12.391Z,22.75
2019-04-10T01:36:13.111Z,22.73
2019-04-10T01:37:12.809Z,22.72
2019-04-10T01:38:13.447Z,22.70
2019-04-10T01:39:13.794Z,22.68
2019-04-10T01:40:13.170Z,22.68
2019-04-10T01:41:13.301Z,22.68
2019-04-10T01:42:14.517Z,22.69
2019-04-10T01:43:17.541Z,22.68
2019-04-10T01:44:13.664Z,22.68
2019-04-10T01:45:13.775Z,22.68
2019-04-10T01:46:13.893Z,22.68
2019-04-10T01:47:15.089Z,22.68
2019-04-10T01:48:14.172Z,22.66
2019-04-10T01:49:14.278Z,22.66
2019-04-10T01:50:14.565Z,22.66
2019-04-10T01:51:15.163Z,22.66
2019-04-10T01:52:15.097Z,22.68
2019-04-10T01:53:14.792Z,22.68
2019-04-10T01:54:15.181Z,22.66
2019-04-10T01:55:23.916Z,22.65
2019-04-10T01:56:23.985Z,22.66
2019-04-10T01:57:15.261Z,22.65
2019-04-10T01:58:15.384Z,22.63
2019-04-10T01:59:15.929Z,22.62
2019-04-10T02:00:15.622Z,22.62
2019-04-10T02:01:16.548Z,22.60
2019-04-10T02:02:16.851Z,22.60
2019-04-10T02:03:16.062Z,22.60
2019-04-10T02:04:16.357Z,22.60
2019-04-10T02:05:16.560Z,22.60
2019-04-10T02:06:16.843Z,22.59
2019-04-10T02:07:16.491Z,22.57
2019-04-10T02:08:17.870Z,22.55
2019-04-10T02:09:16.759Z,22.54
2019-04-10T02:10:17.050Z,22.60
2019-04-10T02:11:17.514Z,22.57
2019-04-10T02:12:17.110Z,22.59
2019-04-10T02:13:17.247Z,22.57
2019-04-10T02:14:18.378Z,22.57
2019-04-10T02:15:17.785Z,22.57
2019-04-10T02:16:18.785Z,22.54
2019-04-10T02:17:17.756Z,22.54
2019-04-10T02:18:17.864Z,22.55
2019-04-10T02:19:18.443Z,22.54
2019-04-10T02:20:18.961Z,22.55
2019-04-10T02:21:18.224Z,22.55
2019-04-10T02:22:18.353Z,22.59
2019-04-10T02:23:19.343Z,22.60
2019-04-10T02:24:18.812Z,22.59
2019-04-10T02:25:19.856Z,22.59
2019-04-10T02:26:19.154Z,22.57
2019-04-10T02:27:18.981Z,22.55
2019-04-10T02:28:19.092Z,22.57
2019-04-10T02:29:19.677Z,22.57
2019-04-10T02:30:19.788Z,22.55
2019-04-10T02:31:21.360Z,22.57
2019-04-10T02:32:21.095Z,22.59
2019-04-10T02:33:19.776Z,22.57
2019-04-10T02:34:21.261Z,22.57
2019-04-10T02:35:23.704Z,22.55
2019-04-10T02:36:21.292Z,22.55
2019-04-10T02:37:20.211Z,22.55
2019-04-10T02:38:37.446Z,22.53
2019-04-10T02:39:27.822Z,22.54
2019-04-10T02:40:21.322Z,22.55
2019-04-10T02:41:21.610Z,22.55
2019-04-10T02:42:21.018Z,22.55
2019-04-10T02:43:21.223Z,22.53
2019-04-10T02:44:22.788Z,22.53
2019-04-10T02:45:21.929Z,22.51
2019-04-10T02:46:22.039Z,22.50
2019-04-10T02:47:22.914Z,22.55
2019-04-10T02:48:21.587Z,22.54
2019-04-10T02:49:22.457Z,22.55
2019-04-10T02:50:21.826Z,22.54
2019-04-10T02:51:23.632Z,22.51
2019-04-10T02:52:22.622Z,22.53
2019-04-10T02:53:23.340Z,22.51
2019-04-10T02:54:22.334Z,22.53
2019-04-10T02:55:22.976Z,22.54
2019-04-10T02:56:23.763Z,22.54
2019-04-10T02:57:22.815Z,22.53
2019-04-10T02:58:24.169Z,22.53
2019-04-10T02:59:23.776Z,22.54
2019-04-10T03:00:24.470Z,22.53
2019-04-10T03:01:23.565Z,22.50
2019-04-10T03:02:24.269Z,22.51
2019-04-10T03:03:23.472Z,22.53
2019-04-10T03:04:24.494Z,22.50
2019-04-10T03:05:25.724Z,22.50
2019-04-10T03:06:23.868Z,22.48
2019-04-10T03:07:24.133Z,22.47
2019-04-10T03:08:41.347Z,22.50
2019-04-10T03:09:37.234Z,22.48
2019-04-10T03:10:33.960Z,22.50
2019-04-10T03:11:26.478Z,22.45
2019-04-10T03:12:24.646Z,22.47
2019-04-10T03:13:26.875Z,22.48
2019-04-10T03:14:26.248Z,22.48
2019-04-10T03:15:25.319Z,22.50
2019-04-10T03:16:25.129Z,22.53
2019-04-10T03:17:26.062Z,22.50
2019-04-10T03:18:25.359Z,22.50
2019-04-10T03:19:25.591Z,22.51
2019-04-10T03:20:26.559Z,22.50
2019-04-10T03:21:25.723Z,22.48
2019-04-10T03:22:26.574Z,22.50
2019-04-10T03:23:25.973Z,22.50
2019-04-10T03:24:26.108Z,22.47
2019-04-10T03:25:26.705Z,22.45
2019-04-10T03:26:26.338Z,22.44
2019-04-10T03:27:26.476Z,22.45
2019-04-10T03:28:27.064Z,22.44
2019-04-10T03:29:27.432Z,22.43
2019-04-10T03:30:27.384Z,22.41
2019-04-10T03:31:29.009Z,22.41
2019-04-10T03:32:31.095Z,22.41
2019-04-10T03:33:30.430Z,22.41
2019-04-10T03:34:30.403Z,22.43
2019-04-10T03:35:27.455Z,22.43
2019-04-10T03:36:27.567Z,22.41
2019-04-10T03:37:28.583Z,22.41
2019-04-10T03:38:27.893Z,22.39
2019-04-10T03:39:27.951Z,22.39
2019-04-10T03:40:29.133Z,22.43
2019-04-10T03:41:28.270Z,22.43
2019-04-10T03:42:28.685Z,22.43
2019-04-10T03:43:28.457Z,22.41
2019-04-10T03:44:28.579Z,22.44
2019-04-10T03:45:28.694Z,22.44
2019-04-10T03:46:29.752Z,22.47
2019-04-10T03:47:28.933Z,22.45
2019-04-10T03:48:29.323Z,22.45
2019-04-10T03:49:29.703Z,22.45
2019-04-10T03:50:29.988Z,22.44
2019-04-10T03:51:30.334Z,22.44
2019-04-10T03:52:29.586Z,22.44
2019-04-10T03:53:29.976Z,22.41
2019-04-10T03:54:30.165Z,22.39
2019-04-10T03:55:29.956Z,22.43
2019-04-10T03:56:30.075Z,22.41
2019-04-10T03:57:30.904Z,22.39
2019-04-10T03:58:31.442Z,22.41
2019-04-10T03:59:30.619Z,22.41
2019-04-10T04:00:30.570Z,22.39
2019-04-10T04:01:31.926Z,22.38
2019-04-10T04:02:31.595Z,22.39
2019-04-10T04:03:30.930Z,22.38
2019-04-10T04:04:31.294Z,22.38
2019-04-10T04:05:31.192Z,22.38
2019-04-10T04:06:31.482Z,22.38
2019-04-10T04:07:32.551Z,22.38
2019-04-10T04:08:32.016Z,22.38
2019-04-10T04:09:31.695Z,22.39
2019-04-10T04:10:32.839Z,22.38
2019-04-10T04:11:31.968Z,22.39
2019-04-10T04:12:32.834Z,22.38
2019-04-10T04:13:33.283Z,22.36
2019-04-10T04:14:32.619Z,22.35
2019-04-10T04:15:32.445Z,22.35
2019-04-10T04:16:33.265Z,22.33
2019-04-10T04:17:32.708Z,22.33
2019-04-10T04:18:33.270Z,22.33
2019-04-10T04:19:32.942Z,22.33
2019-04-10T04:20:33.066Z,22.33
2019-04-10T04:21:34.122Z,22.33
2019-04-10T04:22:33.480Z,22.35
2019-04-10T04:23:34.029Z,22.35
2019-04-10T04:24:33.721Z,22.35
2019-04-10T04:25:34.535Z,22.33
2019-04-10T04:26:35.010Z,22.33
2019-04-10T04:27:34.079Z,22.32
2019-04-10T04:28:34.346Z,22.33
2019-04-10T04:29:34.543Z,22.32
2019-04-10T04:30:34.451Z,22.32
2019-04-10T04:31:35.431Z,22.32
2019-04-10T04:32:34.697Z,22.30
2019-04-10T04:33:34.841Z,22.32
2019-04-10T04:34:34.971Z,22.32
2019-04-10T04:35:35.083Z,22.30
2019-04-10T04:36:35.298Z,22.32
2019-04-10T04:37:35.758Z,22.35
2019-04-10T04:38:35.445Z,22.33
2019-04-10T04:39:35.596Z,22.33
2019-04-10T04:40:35.727Z,22.32
2019-04-10T04:41:35.946Z,22.30
2019-04-10T04:42:35.943Z,22.30
2019-04-10T04:43:37.094Z,22.30
2019-04-10T04:44:36.190Z,22.33
2019-04-10T04:45:36.329Z,22.30
2019-04-10T04:46:36.539Z,22.30
2019-04-10T04:47:36.556Z,22.29
2019-04-10T04:48:36.918Z,22.30
2019-04-10T04:49:37.750Z,22.30
2019-04-10T04:50:38.124Z,22.33
2019-04-10T04:51:37.064Z,22.33
2019-04-10T04:52:37.188Z,22.32
2019-04-10T04:53:37.298Z,22.32
2019-04-10T04:54:37.413Z,22.32
2019-04-10T04:55:37.538Z,22.32
2019-04-10T04:56:37.701Z,22.33
2019-04-10T04:57:39.144Z,22.30
2019-04-10T04:58:38.187Z,22.33
2019-04-10T04:59:38.602Z,22.33
2019-04-10T05:00:38.177Z,22.32
2019-04-10T05:01:38.440Z,22.35
2019-04-10T05:02:39.196Z,22.33
2019-04-10T05:03:38.610Z,22.36
2019-04-10T05:04:39.594Z,22.33
2019-04-10T05:05:39.120Z,22.33
2019-04-10T05:06:39.571Z,22.32
2019-04-10T05:07:39.731Z,22.35
2019-04-10T05:08:39.948Z,22.32
2019-04-10T05:09:40.678Z,22.32
2019-04-10T05:10:39.876Z,22.32
2019-04-10T05:11:39.549Z,22.33
2019-04-10T05:12:39.679Z,22.32
2019-04-10T05:13:40.287Z,22.30
2019-04-10T05:14:40.027Z,22.33
2019-04-10T05:15:40.828Z,22.29
2019-04-10T05:16:40.173Z,22.29
2019-04-10T05:17:41.474Z,22.29
2019-04-10T05:18:40.424Z,22.26
2019-04-10T05:19:40.648Z,22.28
2019-04-10T05:20:45.913Z,22.26
2019-04-10T05:21:41.487Z,22.26
2019-04-10T05:22:41.628Z,22.26
2019-04-10T05:23:41.032Z,22.28
2019-04-10T05:24:41.160Z,22.25
2019-04-10T05:25:41.531Z,22.26
2019-04-10T05:26:41.411Z,22.25
2019-04-10T05:27:41.534Z,22.25
2019-04-10T05:28:41.642Z,22.23
2019-04-10T05:29:42.913Z,22.22
2019-04-10T05:30:41.910Z,22.23
2019-04-10T05:31:42.638Z,22.25
2019-04-10T05:32:42.153Z,22.25
2019-04-10T05:33:42.267Z,22.29
2019-04-10T05:34:43.337Z,22.28
2019-04-10T05:35:42.554Z,22.26
2019-04-10T05:36:42.665Z,22.23
2019-04-10T05:37:43.517Z,22.25
2019-04-10T05:38:43.918Z,22.23
2019-04-10T05:39:47.565Z,22.25
2019-04-10T05:40:44.186Z,22.26
2019-04-10T05:41:44.033Z,22.26
2019-04-10T05:42:43.398Z,22.25
2019-04-10T05:43:44.614Z,22.28
2019-04-10T05:44:44.377Z,22.29
2019-04-10T05:45:43.755Z,22.28
2019-04-10T05:46:45.057Z,22.28
2019-04-10T05:47:44.429Z,22.29
2019-04-10T05:48:44.173Z,22.28
2019-04-10T05:49:45.014Z,22.32
2019-04-10T05:50:54.034Z,22.32
2019-04-10T05:51:45.660Z,22.29
2019-04-10T05:52:45.090Z,22.28
2019-04-10T05:53:44.944Z,22.29
2019-04-10T05:54:44.881Z,22.28
2019-04-10T05:55:45.286Z,22.26
2019-04-10T05:56:45.143Z,22.26
2019-04-10T05:57:45.266Z,22.28
2019-04-10T05:58:45.374Z,22.26
2019-04-10T05:59:45.935Z,22.25
2019-04-10T06:00:45.629Z,22.25
2019-04-10T06:01:45.800Z,22.26
2019-04-10T06:02:46.036Z,22.26
2019-04-10T06:03:47.186Z,22.26
2019-04-10T06:04:46.130Z,22.25
2019-04-10T06:05:46.548Z,22.23
2019-04-10T06:06:46.564Z,22.23
2019-04-10T06:07:47.351Z,22.25
2019-04-10T06:08:47.053Z,22.28
2019-04-10T06:09:55.748Z,22.26
2019-04-10T06:10:47.825Z,22.28
2019-04-10T06:11:47.354Z,22.29
2019-04-10T06:12:47.129Z,22.29
2019-04-10T06:13:47.235Z,22.30
2019-04-10T06:14:48.523Z,22.30
2019-04-10T06:15:47.518Z,22.28
2019-04-10T06:16:47.617Z,22.29
2019-04-10T06:17:48.923Z,22.32
2019-04-10T06:18:47.856Z,22.30
2019-04-10T06:19:48.951Z,22.28
2019-04-10T06:20:49.311Z,22.26
2019-04-10T06:21:48.244Z,22.28
2019-04-10T06:22:48.343Z,22.29
2019-04-10T06:23:49.539Z,22.36
2019-04-10T06:24:48.815Z,22.36
2019-04-10T06:25:49.882Z,22.38
2019-04-10T06:26:49.986Z,22.38
2019-04-10T06:27:48.998Z,22.41
2019-04-10T06:28:49.114Z,22.50
2019-04-10T06:29:49.223Z,22.59
2019-04-10T06:30:50.315Z,22.59
2019-04-10T06:31:49.511Z,22.60
2019-04-10T06:32:49.628Z,22.54
2019-04-10T06:33:50.575Z,22.50
2019-04-10T06:34:50.252Z,22.45
2019-04-10T06:35:50.931Z,22.44
2019-04-10T06:36:50.094Z,22.41
2019-04-10T06:37:50.475Z,22.44
2019-04-10T06:38:50.858Z,22.44
2019-04-10T06:39:51.136Z,22.43
2019-04-10T06:40:50.585Z,22.43
2019-04-10T06:41:50.895Z,22.44
2019-04-10T06:42:53.945Z,22.45
2019-04-10T06:43:50.971Z,22.44
2019-04-10T06:44:51.092Z,22.45
2019-04-10T06:45:52.311Z,22.45
2019-04-10T06:46:51.337Z,22.45
2019-04-10T06:47:51.460Z,22.47
2019-04-10T06:48:52.049Z,22.47
2019-04-10T06:49:52.599Z,22.51
2019-04-10T06:50:51.831Z,22.51
2019-04-10T06:51:51.949Z,22.55
2019-04-10T06:52:52.074Z,22.55
2019-04-10T06:54:00.855Z,22.59
2019-04-10T06:54:53.975Z,22.55
2019-04-10T06:55:52.459Z,22.57
2019-04-10T06:56:52.604Z,22.62
2019-04-10T06:57:56.170Z,22.68
2019-04-10T06:58:52.956Z,22.68
2019-04-10T06:59:52.977Z,22.69
2019-04-10T07:00:54.894Z,22.69
2019-04-10T07:01:56.398Z,22.81
2019-04-10T07:02:53.337Z,22.96
2019-04-10T07:04:01.725Z,22.99
2019-04-10T07:04:56.149Z,22.94
2019-04-10T07:06:06.241Z,22.93
2019-04-10T07:07:00.770Z,22.90
2019-04-10T07:08:01.817Z,22.88
2019-04-10T07:08:55.336Z,22.91
2019-04-10T07:09:55.102Z,22.91
2019-04-10T07:11:02.005Z,22.93
2019-04-10T07:11:58.352Z,22.93
2019-04-10T07:12:55.384Z,22.96
2019-04-10T07:13:56.097Z,22.96
2019-04-10T07:14:58.044Z,22.99
2019-04-10T07:15:58.066Z,23.02
2019-04-10T07:16:55.099Z,23.05
2019-04-10T07:17:55.486Z,23.05
2019-04-10T07:18:58.321Z,23.05
2019-04-10T07:19:55.655Z,23.03
2019-04-10T07:20:58.323Z,23.03
2019-04-10T07:21:58.450Z,23.05
2019-04-10T07:22:56.979Z,23.05
2019-04-10T07:24:01.185Z,23.06
2019-04-10T07:24:56.455Z,23.08
2019-04-10T07:25:56.428Z,23.09
2019-04-10T07:26:58.049Z,23.10
2019-04-10T07:27:56.468Z,23.10
2019-04-10T07:28:58.787Z,23.15
2019-04-10T07:29:59.438Z,23.17
2019-04-10T07:30:59.412Z,23.21
2019-04-10T07:31:56.972Z,23.23
2019-04-10T07:32:57.151Z,23.24
2019-04-10T07:33:57.218Z,23.28
2019-04-10T07:34:59.182Z,23.27
2019-04-10T07:35:57.460Z,23.31
2019-04-10T07:36:58.133Z,23.34
2019-04-10T07:37:58.481Z,23.37
2019-04-10T07:38:57.876Z,23.40
2019-04-10T07:40:01.689Z,23.43
2019-04-10T07:40:58.901Z,23.43
2019-04-10T07:41:58.229Z,23.46
2019-04-10T07:42:58.741Z,23.47
2019-04-10T07:43:58.746Z,23.47
2019-04-10T07:44:58.602Z,23.46
2019-04-10T07:45:58.726Z,23.46
2019-04-10T07:47:00.696Z,23.47
2019-04-10T07:47:58.975Z,23.51
2019-04-10T07:48:59.087Z,23.51
2019-04-10T07:50:00.368Z,23.55
2019-04-10T07:50:59.367Z,23.55
2019-04-10T07:52:01.911Z,23.59
2019-04-10T07:52:59.851Z,23.62
2019-04-10T07:53:59.828Z,23.61
2019-04-10T07:55:00.910Z,23.62
2019-04-10T07:56:06.514Z,23.66
2019-04-10T07:57:00.137Z,23.66
2019-04-10T07:58:00.242Z,23.69
2019-04-10T07:59:00.598Z,23.73
2019-04-10T08:00:00.909Z,23.76
2019-04-10T08:01:00.982Z,23.77
2019-04-10T08:02:00.733Z,23.80
2019-04-10T08:03:00.889Z,23.80
2019-04-10T08:04:01.871Z,23.78
2019-04-10T08:05:02.295Z,23.80
2019-04-10T08:06:02.326Z,23.80
2019-04-10T08:07:01.374Z,23.78
2019-04-10T08:08:01.522Z,23.84
2019-04-10T08:09:01.644Z,23.87
2019-04-10T08:10:01.763Z,23.86
2019-04-10T08:11:01.888Z,23.91
2019-04-10T08:12:02.961Z,23.95
2019-04-10T08:13:02.446Z,23.95
2019-04-10T08:14:03.457Z,23.95
2019-04-10T08:15:02.848Z,23.96
2019-04-10T08:16:02.837Z,23.96
2019-04-10T08:17:03.676Z,23.98
2019-04-10T08:18:02.772Z,23.96
2019-04-10T08:19:04.038Z,23.93
2019-04-10T08:20:03.773Z,23.95
2019-04-10T08:21:03.145Z,23.96
2019-04-10T08:22:03.676Z,23.98
2019-04-10T08:23:03.650Z,23.95
2019-04-10T08:24:03.508Z,23.95
2019-04-10T08:25:04.359Z,23.93
2019-04-10T08:26:03.748Z,23.93
2019-04-10T08:27:03.866Z,23.93
2019-04-10T08:28:03.989Z,23.96
2019-04-10T08:29:04.125Z,23.96
2019-04-10T08:30:05.270Z,24.01
2019-04-10T08:31:04.503Z,24.02
2019-04-10T08:32:05.601Z,24.03
2019-04-10T08:33:05.953Z,24.02
2019-04-10T08:34:04.762Z,24.05
2019-04-10T08:35:05.075Z,24.06
2019-04-10T08:36:05.351Z,24.05
2019-04-10T08:37:05.267Z,24.06
2019-04-10T08:38:05.542Z,24.06
2019-04-10T08:39:06.700Z,24.06
2019-04-10T08:40:05.664Z,24.06
2019-04-10T08:41:05.776Z,24.06
2019-04-10T08:42:06.484Z,24.10
2019-04-10T08:43:06.316Z,24.11
2019-04-10T08:44:06.524Z,24.11
2019-04-10T08:45:07.086Z,24.14
2019-04-10T08:46:06.412Z,24.18
2019-04-10T08:47:06.766Z,24.23
2019-04-10T08:48:06.651Z,24.28
2019-04-10T08:49:07.799Z,24.28
2019-04-10T08:50:07.789Z,24.32
2019-04-10T08:51:07.030Z,24.35
2019-04-10T08:52:08.238Z,24.35
2019-04-10T08:53:07.266Z,24.39
2019-04-10T08:54:07.926Z,24.47
2019-04-10T08:55:07.949Z,24.55
2019-04-10T08:56:07.668Z,24.65
2019-04-10T08:57:07.814Z,24.69
2019-04-10T08:58:08.327Z,24.76
2019-04-10T08:59:08.052Z,24.81
2019-04-10T09:00:08.275Z,24.86
2019-04-10T09:01:09.136Z,24.92
2019-04-10T09:02:09.423Z,24.99
2019-04-10T09:03:08.820Z,25.04
2019-04-10T09:04:09.462Z,25.04
2019-04-10T09:05:09.591Z,25.07
2019-04-10T09:06:09.784Z,25.10
2019-04-10T09:07:09.895Z,25.13
2019-04-10T09:08:10.802Z,25.10
2019-04-10T09:09:10.153Z,25.07
2019-04-10T09:10:10.369Z,25.08
2019-04-10T09:11:11.225Z,25.14
2019-04-10T09:12:10.519Z,25.25
2019-04-10T09:13:10.653Z,25.29
2019-04-10T09:14:10.789Z,25.36
2019-04-10T09:15:11.850Z,25.44
2019-04-10T09:16:12.083Z,25.46
2019-04-10T09:17:11.256Z,25.51
2019-04-10T09:18:11.726Z,25.54
2019-04-10T09:19:11.979Z,25.55
2019-04-10T09:20:11.510Z,25.59
2019-04-10T09:21:11.631Z,25.63
2019-04-10T09:22:12.064Z,25.69
2019-04-10T09:23:27.737Z,25.70
2019-04-10T09:24:14.830Z,25.73
2019-04-10T09:25:13.155Z,25.78
2019-04-10T09:26:13.353Z,25.84
2019-04-10T09:27:13.039Z,25.85
2019-04-10T09:28:12.532Z,25.91
2019-04-10T09:29:12.645Z,25.95
2019-04-10T09:30:12.892Z,25.95
2019-04-10T09:31:13.543Z,25.99
2019-04-10T09:32:13.006Z,26.05
2019-04-10T09:33:19.745Z,26.05
2019-04-10T09:34:13.791Z,26.10
2019-04-10T09:35:14.098Z,26.15
2019-04-10T09:36:13.520Z,26.21
2019-04-10T09:37:13.643Z,26.22
2019-04-10T09:38:14.622Z,26.23
2019-04-10T09:39:14.765Z,26.22
2019-04-10T09:40:14.138Z,26.23
2019-04-10T09:41:14.155Z,26.29
2019-04-10T09:42:14.903Z,26.22
2019-04-10T09:43:15.695Z,26.09
2019-04-10T09:44:14.546Z,25.98
2019-04-10T09:45:15.638Z,25.98
2019-04-10T09:46:14.812Z,26.02
2019-04-10T09:47:14.949Z,26.13
2019-04-10T09:48:15.072Z,26.22
2019-04-10T09:49:15.198Z,26.31
2019-04-10T09:50:15.328Z,26.36
2019-04-10T09:51:18.000Z,26.43
2019-04-10T09:52:15.615Z,26.41
2019-04-10T09:53:15.715Z,26.45
2019-04-10T09:54:15.842Z,26.48
2019-04-10T09:55:16.103Z,26.51
2019-04-10T09:56:17.175Z,26.56
2019-04-10T09:57:16.269Z,26.62
2019-04-10T09:58:17.530Z,26.62
2019-04-10T09:59:16.496Z,26.66
2019-04-10T10:00:16.614Z,26.75
2019-04-10T10:01:17.783Z,26.75
2019-04-10T10:02:17.685Z,26.80
2019-04-10T10:03:17.411Z,26.83
2019-04-10T10:04:17.376Z,26.85
2019-04-10T10:05:18.160Z,26.89
2019-04-10T10:06:27.363Z,26.90
2019-04-10T10:07:18.584Z,26.90
2019-04-10T10:08:18.395Z,26.96
2019-04-10T10:09:17.847Z,27.00
2019-04-10T10:10:17.967Z,27.05
2019-04-10T10:11:18.169Z,27.14
2019-04-10T10:12:18.191Z,27.08
2019-04-10T10:13:18.336Z,26.88
2019-04-10T10:14:18.855Z,26.68
2019-04-10T10:15:18.962Z,26.65
2019-04-10T10:16:18.967Z,26.53
2019-04-10T10:17:18.899Z,26.51
2019-04-10T10:18:19.323Z,26.45
2019-04-10T10:19:19.118Z,26.37
2019-04-10T10:20:19.658Z,26.36
2019-04-10T10:21:19.366Z,26.36
2019-04-10T10:22:19.482Z,26.38
2019-04-10T10:23:20.009Z,26.34
2019-04-10T10:24:19.745Z,26.37
2019-04-10T10:25:19.879Z,26.43
2019-04-10T10:26:19.992Z,26.47
2019-04-10T10:27:20.128Z,26.48
2019-04-10T10:28:20.763Z,26.51
2019-04-10T10:29:20.362Z,26.52
2019-04-10T10:30:20.488Z,26.52
2019-04-10T10:31:20.629Z,26.55
2019-04-10T10:32:21.270Z,26.58
2019-04-10T10:33:21.583Z,26.55
2019-04-10T10:34:20.992Z,26.60
2019-04-10T10:35:21.104Z,26.62
2019-04-10T10:36:22.150Z,26.62
2019-04-10T10:37:22.178Z,26.59
2019-04-10T10:38:21.693Z,26.58
2019-04-10T10:39:22.979Z,26.63
2019-04-10T10:40:21.922Z,26.71
2019-04-10T10:41:22.291Z,26.83
2019-04-10T10:42:23.360Z,26.85
2019-04-10T10:43:22.605Z,26.80
2019-04-10T10:44:22.443Z,26.85
2019-04-10T10:45:22.854Z,26.89
2019-04-10T10:46:23.075Z,26.90
2019-04-10T10:47:22.822Z,26.92
2019-04-10T10:48:23.987Z,26.97
2019-04-10T10:49:23.100Z,27.00
2019-04-10T10:50:23.664Z,27.02
2019-04-10T10:51:23.499Z,27.08
2019-04-10T10:52:23.709Z,27.10
2019-04-10T10:53:24.046Z,27.12
2019-04-10T10:54:23.739Z,27.20
2019-04-10T10:55:23.844Z,27.21
2019-04-10T10:56:24.455Z,27.25
2019-04-10T10:57:24.858Z,27.29
2019-04-10T10:58:24.214Z,27.40
2019-04-10T10:59:25.184Z,27.51
2019-04-10T11:00:25.217Z,27.65
2019-04-10T11:01:24.584Z,27.82
2019-04-10T11:02:25.567Z,28.02
2019-04-10T11:03:24.871Z,28.07
2019-04-10T11:04:24.966Z,27.93
2019-04-10T11:05:25.300Z,27.80
2019-04-10T11:06:25.237Z,27.59
2019-04-10T11:07:25.360Z,27.44
2019-04-10T11:08:25.478Z,27.37
2019-04-10T11:09:26.205Z,27.32
2019-04-10T11:10:27.503Z,27.21
2019-04-10T11:11:25.898Z,27.15
2019-04-10T11:12:26.374Z,27.14
2019-04-10T11:13:26.599Z,27.10
2019-04-10T11:14:27.599Z,27.08
2019-04-10T11:15:26.368Z,27.03
2019-04-10T11:16:27.184Z,26.95
2019-04-10T11:17:28.176Z,26.84
2019-04-10T11:18:26.757Z,26.85
2019-04-10T11:19:27.158Z,26.88
2019-04-10T11:20:28.035Z,26.89
2019-04-10T11:21:27.467Z,26.84
2019-04-10T11:22:27.303Z,26.77
2019-04-10T11:23:28.473Z,26.71
2019-04-10T11:24:27.539Z,26.60
2019-04-10T11:25:28.623Z,26.70
2019-04-10T11:26:27.799Z,26.75
2019-04-10T11:27:28.110Z,26.84
2019-04-10T11:28:30.236Z,26.85
2019-04-10T11:29:28.764Z,26.81
2019-04-10T11:30:28.769Z,26.81
2019-04-10T11:31:29.146Z,26.83
2019-04-10T11:32:28.952Z,26.81
2019-04-10T11:33:28.682Z,26.88
2019-04-10T11:34:29.348Z,26.90
2019-04-10T11:35:29.075Z,26.93
2019-04-10T11:36:30.063Z,26.78
2019-04-10T11:38:29.331Z,26.74
2019-04-10T11:39:33.085Z,26.74
2019-04-10T11:40:29.750Z,26.71
2019-04-10T11:41:31.206Z,26.68
2019-04-10T11:42:32.169Z,26.71
2019-04-10T11:43:30.384Z,26.74
2019-04-10T11:44:30.074Z,26.80
2019-04-10T11:45:37.974Z,26.84
2019-04-10T11:46:32.135Z,26.83
2019-04-10T11:47:32.523Z,26.84
2019-04-10T11:48:32.004Z,26.88
2019-04-10T11:49:31.608Z,26.81
2019-04-10T11:50:32.161Z,26.84
2019-04-10T11:51:33.427Z,26.89
2019-04-10T11:52:36.282Z,26.89
2019-04-10T11:53:35.338Z,26.93
2019-04-10T11:54:32.767Z,26.90
2019-04-10T11:55:35.409Z,26.84
2019-04-10T11:56:33.779Z,26.84
2019-04-10T11:57:32.593Z,26.88
2019-04-10T11:58:31.807Z,26.85
2019-04-10T11:59:35.648Z,26.81
2019-04-10T12:00:34.216Z,26.77
2019-04-10T12:01:34.251Z,26.71
2019-04-10T12:02:34.359Z,26.66
2019-04-10T12:03:34.514Z,26.66
2019-04-10T12:04:43.525Z,26.59
2019-04-10T12:05:33.294Z,26.52
2019-04-10T12:06:33.908Z,26.44
2019-04-10T12:08:10.944Z,26.47
2019-04-10T12:08:55.339Z,26.41
2019-04-10T12:11:33.544Z,26.38
2019-04-10T12:12:33.661Z,26.36
2019-04-10T12:13:34.495Z,26.36
2019-04-10T12:14:33.907Z,26.40
2019-04-10T12:15:34.450Z,26.47
2019-04-10T12:16:34.180Z,26.51
2019-04-10T12:17:34.287Z,26.52
2019-04-10T12:18:35.071Z,26.59
2019-04-10T12:19:34.528Z,26.63
2019-04-10T12:20:35.429Z,26.65
2019-04-10T12:21:34.829Z,26.66
2019-04-10T12:22:35.857Z,26.75
2019-04-10T12:23:35.101Z,26.93
2019-04-10T12:24:36.301Z,27.14
2019-04-10T12:25:35.338Z,27.25
2019-04-10T12:26:35.982Z,27.15
2019-04-10T12:27:35.583Z,27.03
2019-04-10T12:28:36.087Z,26.99
2019-04-10T12:29:35.863Z,26.93
2019-04-10T12:30:35.981Z,26.88
2019-04-10T12:31:36.438Z,26.77
2019-04-10T12:32:36.740Z,26.74
2019-04-10T12:33:36.342Z,26.62
2019-04-10T12:34:36.491Z,26.47
2019-04-10T12:35:36.623Z,26.45
2019-04-10T12:36:36.724Z,26.66
2019-04-10T12:37:37.155Z,26.96
2019-04-10T12:38:36.982Z,27.22
2019-04-10T12:39:37.110Z,27.42
2019-04-10T12:40:38.917Z,27.60
2019-04-10T12:41:37.426Z,27.73
2019-04-10T12:42:38.615Z,27.90
2019-04-10T12:43:37.590Z,28.05
2019-04-10T12:44:38.681Z,28.15
2019-04-10T12:45:38.179Z,28.23
2019-04-10T12:46:37.984Z,28.35
2019-04-10T12:47:38.117Z,28.42
2019-04-10T12:48:38.845Z,28.48
2019-04-10T12:49:39.367Z,28.57
2019-04-10T12:50:39.106Z,28.66
2019-04-10T12:51:38.612Z,28.76
2019-04-10T12:52:38.840Z,28.93
2019-04-10T12:53:39.825Z,29.17
2019-04-10T12:54:40.457Z,29.38
2019-04-10T12:55:39.084Z,29.35
2019-04-10T12:56:40.147Z,29.36